DET weather

Coleman A. Young Municipal Airport
Detroit, Michigan, United States

Public forecast

Using degrees Fahrenheit for public forecast. Weather courtesy of forecast.io.

Current aviation weather report (METAR) for Coleman A. Young Municipal Airport

Retrieved 2020/01/21 12:53 UTC (30 minutes ago):

KDET 211253Z 30004KT 10SM OVC027 M07/M12 A3057 RMK AO2 SLP364 T10671122

Aviation forecast (TAF) for Coleman A. Young Municipal Airport

Retrieved 2020/01/21 12:42 UTC (41 minutes ago):

TAF KDET 211140Z 2112/2212 29004KT P6SM BKN025 FM211400 27008KT P6SM SCT030 FM212200 26007KT P6SM BKN030 FM220200 25006KT P6SM SCT030 SCT250